Dojun Brave — DSPF8 — position and weather

sailwx.info

Track history (hours):
 
Tides and Currents Weather Stations Pressure Air Temp Water Temp Dewpoint Dewpoint Depression Visibility Wind Speed Wind Dir Waves Ship Positions

Dojun Brave

Last reported at 2017-Nov-17 10:26 UTC. Time now 2017-Nov-23 01:36 UTC.
Position N 34°37' E 134°57'.

Length 80 m; draft 3.9 m.

Type: Cargo ship. MMSI: 440917000.

Date/timePositionNaut miles runAvg speedWind from/ knotsBaromVisibWave heightAir tempDewpointWater temp
2017-Nov-17 10:26N 34°37' E 134°57'511.7
2017-Nov-17 10:00N 34°36' E 135°03'510.2
2017-Nov-17 09:30N 34°36' E 135°10'510.1
2017-Nov-17 09:00N 34°36' E 135°16'5 9.9
2017-Nov-17 08:30N 34°37' E 135°22'4 8.4
2017-Nov-17 08:00N 34°40' E 135°25'0 0.3
2017-Nov-17 07:29N 34°40' E 135°25'0 0.0
2017-Nov-17 06:41N 34°40' E 135°25'0 0.0
2017-Nov-17 04:29N 34°40' E 135°25'0 0.2
2017-Nov-17 04:01N 34°40' E 135°25'2 4.9
2017-Nov-17 03:30N 34°38' E 135°24'3 6.9
2017-Nov-17 03:01N 34°36' E 135°20'2 3.0
2017-Nov-17 02:30N 34°37' E 135°22'3 5.5
2017-Nov-17 02:00N 34°36' E 135°19'4 7.7
2017-Nov-17 01:30N 34°35' E 135°14'4 8.5
2017-Nov-17 01:00N 34°35' E 135°09'4 8.8
2017-Nov-17 00:30N 34°35' E 135°04'4 7.2
2017-Nov-16 23:58N 34°37' E 134°60'  
Track history (hours):
 
Tides and Currents Weather Stations Pressure Air Temp Water Temp Dewpoint Dewpoint Depression Visibility Wind Speed Wind Dir Waves Ship Positions

Dojun Brave

Last reported at 2017-Nov-17 10:26 UTC. Time now 2017-Nov-23 01:36 UTC.
Position N 34°37' E 134°57'.

Length 80 m; draft 3.9 m.

Type: Cargo ship. MMSI: 440917000.

Date/timePositionNaut miles runAvg speedWind from/ knotsBaromVisibWave heightAir tempDewpointWater temp
2017-Nov-17 10:26N 34°37' E 134°57'511.7
2017-Nov-17 10:00N 34°36' E 135°03'510.2
2017-Nov-17 09:30N 34°36' E 135°10'510.1
2017-Nov-17 09:00N 34°36' E 135°16'5 9.9
2017-Nov-17 08:30N 34°37' E 135°22'4 8.4
2017-Nov-17 08:00N 34°40' E 135°25'0 0.3
2017-Nov-17 07:29N 34°40' E 135°25'0 0.0
2017-Nov-17 06:41N 34°40' E 135°25'0 0.0
2017-Nov-17 04:29N 34°40' E 135°25'0 0.2
2017-Nov-17 04:01N 34°40' E 135°25'2 4.9
2017-Nov-17 03:30N 34°38' E 135°24'3 6.9
2017-Nov-17 03:01N 34°36' E 135°20'2 3.0
2017-Nov-17 02:30N 34°37' E 135°22'3 5.5
2017-Nov-17 02:00N 34°36' E 135°19'4 7.7
2017-Nov-17 01:30N 34°35' E 135°14'4 8.5
2017-Nov-17 01:00N 34°35' E 135°09'4 8.8
2017-Nov-17 00:30N 34°35' E 135°04'4 7.2
2017-Nov-16 23:58N 34°37' E 134°60'  

Dump ship's entire track history